Time,TemperatureF,DewpointF,PressureIn,WindDirection,WindDirectionDegrees,WindSpeedMPH,WindSpeedGustMPH,Humidity,HourlyPrecipIn,Conditions,Clouds,dailyrainin,SoftwareType,DateUTC
2013-08-09 00:12:00,84.0,78.0,29.95,East,92,0.0,0.0,81,0.00,,,0.55,,2013-08-09 04:12:00,
2013-08-09 00:22:00,84.0,78.0,29.95,ENE,57,0.0,0.0,81,0.00,,,0.55,,2013-08-09 04:22:00,
2013-08-09 00:33:00,83.0,75.0,29.96,East,92,0.0,0.0,78,0.00,,,0.55,,2013-08-09 04:33:00,
2013-08-09 00:43:00,84.0,76.0,29.95,ENE,78,0.0,0.0,78,0.00,,,0.55,,2013-08-09 04:43:00,
2013-08-09 01:02:00,84.0,77.0,29.94,East,82,0.0,0.0,80,0.00,,,0.55,,2013-08-09 05:02:00,
2013-08-09 01:11:00,84.0,78.0,29.95,East,94,0.0,0.0,81,0.00,,,0.55,,2013-08-09 05:11:00,
2013-08-09 01:32:00,83.0,77.0,29.95,East,100,0.0,0.0,81,0.00,,,0.55,,2013-08-09 05:32:00,
2013-08-09 01:43:00,83.0,77.0,29.96,East,86,0.0,0.0,81,0.00,,,0.55,,2013-08-09 05:43:00,
2013-08-09 01:52:00,83.0,77.0,29.95,ESE,107,0.0,0.0,81,0.00,,,0.55,,2013-08-09 05:52:00,
2013-08-09 02:01:00,83.0,77.0,29.95,ESE,107,0.0,0.0,81,0.00,,,0.55,,2013-08-09 06:01:00,
2013-08-09 02:11:00,81.0,73.0,29.95,ESE,119,0.0,0.0,77,0.00,,,0.55,,2013-08-09 06:11:00,
2013-08-09 02:22:00,79.0,72.0,29.96,East,98,0.0,0.0,79,0.00,,,0.55,,2013-08-09 06:22:00,
2013-08-09 02:32:00,80.0,75.0,29.96,SSE,167,0.0,0.0,85,0.01,,,0.56,,2013-08-09 06:32:00,
2013-08-09 02:43:00,79.0,75.0,29.94,ESE,118,0.0,0.0,87,0.01,,,0.56,,2013-08-09 06:43:00,
2013-08-09 02:52:00,79.0,75.0,29.94,SE,135,0.0,0.0,87,0.01,,,0.56,,2013-08-09 06:52:00,
2013-08-09 03:01:00,79.0,74.0,29.93,SSE,163,0.0,0.0,85,0.01,,,0.56,,2013-08-09 07:01:00,
2013-08-09 03:12:00,80.0,75.0,29.93,SE,136,0.0,0.0,85,0.01,,,0.56,,2013-08-09 07:12:00,
2013-08-09 03:22:00,80.0,74.0,29.93,SE,136,0.0,0.0,83,0.01,,,0.56,,2013-08-09 07:22:00,
2013-08-09 03:33:00,80.0,74.0,29.92,SSE,153,0.0,0.0,82,0.00,,,0.56,,2013-08-09 07:33:00,
2013-08-09 03:43:00,80.0,74.0,29.93,SE,143,0.0,0.0,82,0.00,,,0.56,,2013-08-09 07:43:00,
2013-08-09 03:53:00,80.0,74.0,29.94,SE,129,0.0,0.0,83,0.00,,,0.56,,2013-08-09 07:53:00,
2013-08-09 04:02:00,80.0,74.0,29.94,SE,132,0.0,0.0,82,0.00,,,0.56,,2013-08-09 08:02:00,
2013-08-09 04:22:00,81.0,72.0,29.93,SE,138,0.0,0.0,74,0.00,,,0.56,,2013-08-09 08:22:00,
2013-08-09 04:32:00,82.0,73.0,29.93,ESE,114,0.0,0.0,75,0.00,,,0.56,,2013-08-09 08:32:00,
2013-08-09 04:43:00,82.0,72.0,29.93,ESE,115,0.0,0.0,73,0.00,,,0.56,,2013-08-09 08:43:00,
2013-08-09 04:53:00,82.0,72.0,29.93,ESE,115,0.0,0.0,73,0.00,,,0.56,,2013-08-09 08:53:00,
2013-08-09 05:02:00,82.0,73.0,29.91,SE,137,0.0,0.0,75,0.00,,,0.56,,2013-08-09 09:02:00,
2013-08-09 05:12:00,82.0,74.0,29.91,SE,144,0.0,0.0,77,0.00,,,0.56,,2013-08-09 09:12:00,
2013-08-09 05:22:00,82.0,74.0,29.91,SE,136,0.0,0.0,78,0.00,,,0.56,,2013-08-09 09:22:00,
2013-08-09 05:43:00,82.0,75.0,29.89,South,175,0.0,0.0,80,0.00,,,0.56,,2013-08-09 09:43:00,
2013-08-09 05:52:00,81.0,73.0,29.89,ESE,121,0.0,0.0,78,0.00,,,0.56,,2013-08-09 09:52:00,
2013-08-09 06:01:00,81.0,73.0,29.90,SE,124,0.0,0.0,78,0.00,,,0.56,,2013-08-09 10:01:00,
2013-08-09 06:12:00,81.0,73.0,29.90,ESE,105,0.0,0.0,78,0.00,,,0.56,,2013-08-09 10:12:00,
2013-08-09 06:22:00,81.0,74.0,29.91,East,95,0.0,0.0,79,0.00,,,0.43,,2013-08-09 10:22:00,
2013-08-09 06:43:00,81.0,75.0,29.90,East,100,0.0,0.0,81,0.00,,,0.43,,2013-08-09 10:43:00,
2013-08-09 06:53:00,81.0,75.0,29.90,East,100,0.0,0.0,81,0.00,,,0.43,,2013-08-09 10:53:00,
2013-08-09 07:11:00,81.0,76.0,29.91,East,87,0.0,0.0,84,0.00,,,0.43,,2013-08-09 11:11:00,
2013-08-09 07:22:00,80.0,75.0,29.92,East,88,0.0,0.0,85,0.00,,,0.16,,2013-08-09 11:22:00,
2013-08-09 07:33:00,80.0,75.0,29.92,East,93,0.0,0.0,85,0.00,,,0.16,,2013-08-09 11:33:00,
2013-08-09 07:43:00,80.0,75.0,29.93,ESE,104,0.0,0.0,85,0.00,,,0.16,,2013-08-09 11:43:00,
2013-08-09 07:53:00,81.0,76.0,29.93,ESE,106,0.0,0.0,84,0.00,,,0.16,,2013-08-09 11:53:00,
2013-08-09 08:02:00,81.0,75.0,29.93,SE,127,0.0,0.0,83,0.00,,,0.16,,2013-08-09 12:02:00,
2013-08-09 08:43:00,83.0,78.0,29.94,ESE,104,0.0,0.0,84,0.00,,,0.12,,2013-08-09 12:43:00,
2013-08-09 08:52:00,83.0,77.0,29.94,ESE,111,0.0,0.0,83,0.00,,,0.12,,2013-08-09 12:52:00,
2013-08-09 09:01:00,84.0,78.0,29.95,SE,133,0.0,0.0,83,0.00,,,0.12,,2013-08-09 13:01:00,
2013-08-09 09:12:00,84.0,77.0,29.96,SE,136,0.0,0.0,80,0.00,,,0.12,,2013-08-09 13:12:00,
2013-08-09 09:23:00,84.0,76.0,29.96,SE,134,0.0,0.0,78,0.00,,,0.03,,2013-08-09 13:23:00,
2013-08-09 09:32:00,84.0,76.0,29.97,SE,141,0.0,0.0,77,0.00,,,0.03,,2013-08-09 13:32:00,
2013-08-09 09:43:00,84.0,76.0,29.97,ESE,119,0.0,0.0,76,0.00,,,0.03,,2013-08-09 13:43:00,
2013-08-09 09:52:00,84.0,76.0,29.97,ESE,119,0.0,0.0,76,0.00,,,0.03,,2013-08-09 13:52:00,
2013-08-09 10:02:00,85.0,76.0,29.98,ESE,110,0.0,0.0,74,0.00,,,0.03,,2013-08-09 14:02:00,
2013-08-09 10:11:00,86.0,77.0,29.98,SE,129,0.0,0.0,74,0.00,,,0.03,,2013-08-09 14:11:00,
2013-08-09 10:22:00,86.0,77.0,29.98,SE,132,0.0,0.0,74,0.00,,,0.01,,2013-08-09 14:22:00,
2013-08-09 10:33:00,86.0,77.0,29.98,SE,132,0.0,0.0,74,0.00,,,0.01,,2013-08-09 14:33:00,
2013-08-09 10:43:00,87.0,77.0,29.98,SE,140,0.0,0.0,73,0.00,,,0.01,,2013-08-09 14:43:00,
2013-08-09 10:53:00,88.0,78.0,29.98,SE,140,0.0,0.0,73,0.00,,,0.01,,2013-08-09 14:53:00,
2013-08-09 11:02:00,88.0,78.0,29.98,ESE,121,0.0,0.0,72,0.00,,,0.01,,2013-08-09 15:02:00,
2013-08-09 11:12:00,88.0,78.0,29.97,ESE,117,0.0,0.0,72,0.00,,,0.01,,2013-08-09 15:12:00,
2013-08-09 11:22:00,88.0,77.0,29.97,ESE,121,0.0,0.0,71,0.00,,,0.01,,2013-08-09 15:22:00,
2013-08-09 11:33:00,88.0,77.0,29.98,ESE,121,0.0,0.0,71,0.00,,,0.01,,2013-08-09 15:33:00,
2013-08-09 11:44:00,87.0,78.0,29.97,East,99,0.0,0.0,74,0.00,,,0.01,,2013-08-09 15:44:00,
2013-08-09 11:53:00,86.0,77.0,29.98,ESE,113,0.0,0.0,74,0.00,,,0.01,,2013-08-09 15:53:00,
2013-08-09 12:01:00,86.0,77.0,29.98,SE,134,0.0,0.0,74,0.00,,,0.01,,2013-08-09 16:01:00,
2013-08-09 12:11:00,86.0,77.0,29.98,SE,138,0.0,0.0,75,0.00,,,0.01,,2013-08-09 16:11:00,
2013-08-09 12:22:00,88.0,79.0,29.98,SE,144,0.0,0.0,74,0.00,,,0.01,,2013-08-09 16:22:00,
2013-08-09 12:32:00,90.0,80.0,29.98,ESE,121,0.0,0.0,72,0.00,,,0.01,,2013-08-09 16:32:00,
2013-08-09 12:43:00,90.0,78.0,29.99,SSE,148,0.0,0.0,69,0.00,,,0.01,,2013-08-09 16:43:00,
2013-08-09 12:53:00,90.0,78.0,29.99,East,91,0.0,0.0,68,0.00,,,0.01,,2013-08-09 16:53:00,
2013-08-09 13:02:00,90.0,78.0,29.99,East,91,0.0,0.0,68,0.00,,,0.01,,2013-08-09 17:02:00,
2013-08-09 13:22:00,90.0,76.0,29.99,SE,127,0.0,0.0,64,0.00,,,0.01,,2013-08-09 17:22:00,
2013-08-09 13:33:00,90.0,78.0,29.98,ESE,110,0.0,0.0,67,0.00,,,0.01,,2013-08-09 17:33:00,
2013-08-09 13:43:00,88.0,76.0,29.98,ESE,122,0.0,0.0,67,0.00,,,0.01,,2013-08-09 17:43:00,
2013-08-09 13:52:00,87.0,76.0,29.98,ESE,117,0.0,0.0,71,0.00,,,0.01,,2013-08-09 17:52:00,
2013-08-09 14:01:00,86.0,77.0,29.98,SE,126,0.0,0.0,74,0.00,,,0.01,,2013-08-09 18:01:00,
2013-08-09 14:11:00,85.0,76.0,29.98,ESE,117,0.0,0.0,75,0.00,,,0.01,,2013-08-09 18:11:00,
2013-08-09 14:22:00,85.0,77.0,29.98,ESE,114,0.0,0.0,77,0.00,,,0.01,,2013-08-09 18:22:00,
2013-08-09 14:32:00,85.0,77.0,29.98,ESE,107,0.0,0.0,77,0.00,,,0.01,,2013-08-09 18:32:00,
2013-08-09 14:43:00,85.0,77.0,29.99,SE,132,0.0,0.0,77,0.00,,,0.01,,2013-08-09 18:43:00,
2013-08-09 14:53:00,85.0,77.0,29.99,ESE,102,0.0,0.0,76,0.00,,,0.01,,2013-08-09 18:53:00,
2013-08-09 15:02:00,86.0,78.0,29.99,ESE,102,0.0,0.0,78,0.00,,,0.01,,2013-08-09 19:02:00,
2013-08-09 15:11:00,86.0,79.0,29.98,SE,134,0.0,0.0,79,0.00,,,0.01,,2013-08-09 19:11:00,
2013-08-09 15:43:00,83.0,77.0,29.98,ESE,104,0.0,0.0,82,0.01,,,0.02,,2013-08-09 19:43:00,
2013-08-09 15:52:00,83.0,77.0,29.98,East,101,0.0,0.0,82,0.01,,,0.02,,2013-08-09 19:52:00,
2013-08-09 16:43:00,87.0,78.0,29.96,SSE,153,0.0,0.0,75,0.00,,,0.02,,2013-08-09 20:43:00,
2013-08-09 16:52:00,87.0,77.0,29.96,ESE,119,0.0,0.0,73,0.00,,,0.02,,2013-08-09 20:52:00,
2013-08-09 17:01:00,87.0,78.0,29.95,SE,134,0.0,0.0,75,0.00,,,0.02,,2013-08-09 21:01:00,
2013-08-09 17:43:00,88.0,77.0,29.94,SE,127,0.0,0.0,70,0.00,,,0.02,,2013-08-09 21:43:00,
2013-08-09 17:52:00,87.0,77.0,29.94,SE,134,0.0,0.0,72,0.00,,,0.02,,2013-08-09 21:52:00,
2013-08-09 18:01:00,86.0,78.0,29.94,SE,135,0.0,0.0,76,0.00,,,0.02,,2013-08-09 22:01:00,
2013-08-09 18:22:00,86.0,76.0,29.94,SE,129,0.0,0.0,73,0.00,,,0.02,,2013-08-09 22:22:00,
2013-08-09 18:32:00,86.0,77.0,29.93,ESE,117,0.0,0.0,75,0.00,,,0.02,,2013-08-09 22:32:00,
2013-08-09 18:42:00,85.0,77.0,29.94,SE,126,0.0,0.0,76,0.00,,,0.02,,2013-08-09 22:42:00,
2013-08-09 18:52:00,84.0,76.0,29.94,ESE,109,0.0,0.0,77,0.00,,,0.02,,2013-08-09 22:52:00,
2013-08-09 19:11:00,84.0,77.0,29.95,ENE,77,0.0,0.0,79,0.00,,,0.02,,2013-08-09 23:11:00,
2013-08-09 19:22:00,84.0,77.0,29.96,ESE,105,0.0,0.0,80,0.00,,,0.02,,2013-08-09 23:22:00,
2013-08-09 19:43:00,84.0,77.0,29.96,SE,127,0.0,0.0,80,0.00,,,0.02,,2013-08-09 23:43:00,
2013-08-09 19:52:00,83.0,77.0,29.96,SE,134,0.0,0.0,81,0.00,,,0.02,,2013-08-09 23:52:00,
2013-08-09 20:01:00,83.0,77.0,29.97,ESE,102,0.0,0.0,81,0.00,,,0.02,,2013-08-10 00:01:00,
2013-08-09 20:22:00,83.0,77.0,29.97,SE,130,0.0,0.0,82,0.00,,,0.02,,2013-08-10 00:22:00,
2013-08-09 20:33:00,83.0,77.0,29.98,SE,124,0.0,0.0,81,0.00,,,0.02,,2013-08-10 00:33:00,
2013-08-09 20:43:00,83.0,77.0,29.98,East,98,0.0,0.0,82,0.00,,,0.02,,2013-08-10 00:43:00,
2013-08-09 20:52:00,83.0,77.0,29.98,East,98,0.0,0.0,82,0.00,,,0.02,,2013-08-10 00:52:00,
2013-08-09 21:01:00,83.0,77.0,29.98,ESE,113,0.0,0.0,82,0.00,,,0.02,,2013-08-10 01:01:00,
2013-08-09 21:11:00,83.0,77.0,29.98,ESE,113,0.0,0.0,82,0.00,,,0.02,,2013-08-10 01:11:00,
2013-08-09 21:22:00,83.0,77.0,29.99,SE,125,0.0,0.0,82,0.00,,,0.02,,2013-08-10 01:22:00,
2013-08-09 21:32:00,83.0,77.0,29.99,SE,125,0.0,0.0,82,0.00,,,0.02,,2013-08-10 01:32:00,
2013-08-09 21:42:00,83.0,76.0,29.99,SE,126,0.0,0.0,80,0.00,,,0.02,,2013-08-10 01:42:00,
2013-08-09 21:52:00,83.0,76.0,29.99,SE,126,0.0,0.0,80,0.00,,,0.02,,2013-08-10 01:52:00,
2013-08-09 22:03:00,83.0,76.0,29.99,SE,126,0.0,0.0,80,0.00,,,0.02,,2013-08-10 02:03:00,
2013-08-09 22:11:00,83.0,76.0,29.99,SE,126,0.0,0.0,80,0.00,,,0.02,,2013-08-10 02:11:00,
2013-08-09 22:21:00,83.0,76.0,29.99,SE,126,0.0,0.0,80,0.00,,,0.02,,2013-08-10 02:21:00,
2013-08-09 23:01:00,83.0,77.0,29.99,ESE,102,0.0,0.0,82,0.00,,,0.02,,2013-08-10 03:01:00,
2013-08-09 23:11:00,83.0,77.0,29.99,ESE,102,0.0,0.0,82,0.00,,,0.02,,2013-08-10 03:11:00,
2013-08-09 23:22:00,83.0,77.0,30.00,ESE,122,0.0,0.0,82,0.00,,,0.02,,2013-08-10 03:22:00,
2013-08-09 23:32:00,83.0,77.0,30.00,ESE,122,0.0,0.0,82,0.00,,,0.02,,2013-08-10 03:32:00,
2013-08-09 23:42:00,83.0,77.0,30.00,ESE,122,0.0,0.0,82,0.00,,,0.02,,2013-08-10 03:42:00,
2013-08-09 23:52:00,83.0,77.0,30.00,ESE,115,0.0,0.0,83,0.00,,,0.02,,2013-08-10 03:52:00,